Overview Statistics Trail Chart Weather Telemetry Raw packets
 

This is the latest recevied telemetry packets stored in our database for station/object DG1YDX-1. If no packets are shown the sender has not sent any telemetry packets the latest 10 day(s).

Telemetry packets is used to share measurements like repeteater parameters, battery voltage, radiation readings (or any other measurements).

<< 1 2 3 4 >>
Time Press* Temp.in* Hum* QNH* Temp.out*
1788670262 1006.3 hPa 24.6 C deg 44.6 % 1014.7 hPa 0 C deg
1788668450 1005.9 hPa 24.5 C deg 44 % 1014.4 hPa 0 C deg
1788666625 1005.9 hPa 24.7 C deg 43.5 % 1014.4 hPa 0 C deg
1788664775 1005.9 hPa 24.8 C deg 43.5 % 1014.3 hPa 0 C deg
1788662974 1005.5 hPa 25 C deg 44 % 1014 hPa 0 C deg
1788659823 1005.8 hPa 25 C deg 44.3 % 1014.2 hPa 0 C deg
1788657101 1005.3 hPa 25.4 C deg 44.8 % 1013.7 hPa 0 C deg
1788655290 1005.3 hPa 25.6 C deg 44.4 % 1013.7 hPa 0 C deg
1788653472 1005.2 hPa 25.5 C deg 44.3 % 1013.6 hPa 0 C deg
1788651656 1005.1 hPa 25.7 C deg 44.3 % 1013.5 hPa 0 C deg
1788649562 1004.9 hPa 25.7 C deg 44.6 % 1013.3 hPa 0 C deg
1788647627 1004.5 hPa 26 C deg 44 % 1012.9 hPa 0 C deg
1788645822 1004.4 hPa 26 C deg 44.3 % 1012.8 hPa 0 C deg
1788644014 1004.2 hPa 26 C deg 44.3 % 1012.6 hPa 0 C deg
1788642166 1003.9 hPa 26 C deg 43.3 % 1012.3 hPa 0 C deg
1788640359 1003.7 hPa 26.3 C deg 42.2 % 1012.1 hPa 0 C deg
1788638441 1003.5 hPa 26.3 C deg 42.1 % 1011.8 hPa 0 C deg
1788636629 1003.2 hPa 26.4 C deg 42.1 % 1011.6 hPa 0 C deg
1788634821 1002.8 hPa 26.5 C deg 41.8 % 1011.2 hPa 0 C deg
1788632964 1002.4 hPa 26.6 C deg 41.6 % 1010.8 hPa 0 C deg
1788631158 1002.1 hPa 26.7 C deg 41.7 % 1010.5 hPa 0 C deg
1788629242 1001.7 hPa 26.8 C deg 42 % 1010 hPa 0 C deg
1788626571 1001.3 hPa 27.2 C deg 42.8 % 1009.6 hPa 0 C deg
1788624761 1000.8 hPa 26.9 C deg 41.2 % 1009.1 hPa 0 C deg
1788622440 1000.6 hPa 27 C deg 41.2 % 1008.9 hPa 0 C deg
*Used Equation Coefficients:
Press: 0, 1, 0
Temp.in: 0, 1, 0
Hum: 0, 1, 0
QNH: 0, 1, 0
Temp.out: 0, 1, 0

  • The parameter names for the analog channels will be Value1, Value2, Value3 (up to Value5) if station has not sent a PARAM-packet that specifies the parameter names for each analog channel.
  • Each analog value is a decimal number between 000 and 255 (according to APRS specifications). The receiver use the telemetry equation coefficientsto to restore the original sensor values. If no EQNS-packet with equation coefficients is sent we will show the values as is (this corresponds to the equation coefficients a=0, b=1 and c=0).
    The sent equation coefficients is used in the equation: a * value2 + b * value + c.
  • The units for the analog values will not be shown if station has not sent a UNIT-packet specifying what unit's to use.
  • The parameter names for the digital bits will be Bit1, Bit2, Bit3 (up to Bit8) if station has not sent a PARAM-packet that specifies the parameter names for each digital bit.
  • All bit labels will be named "On" if station has not sent a UNIT-packet that specifies the label of each bit.
  • A bit is considered to be On when the bit is 1 if station has not sent a BITS-packet that specifies another "Bit sense" (a BITS-packet specify the state of the bits that match the BIT labels)